Punta Gorda, FL

5:34 PM EDT on August 30, 2014 (GMT -0400)
Charlotte County | Change Station
CLOSE
Current Station
Airport
Location: Punta Gorda,
Elevation: 26 ft
Nearby Weather Stations
Active Advisory: Special Statement

Elev 26 ft 26.92 °N, 81.99 °W | Updated 22 minutes ago

Light Thunderstorms and Rain
Light Thunderstorm Rain
93 °F
Feels Like 100 °F
N
13
Wind Variable Wind from SE
Gusts 23 mph

Today
High -- | Low -- °F
--% Chance of Precip.
Yesterday
High -- | Low -- °F
Precip. -- in
7:07 AM 7:51 PM
Waxing Crescent, 25% visible
Pressure 30.05 in
Visibility 10.0 miles
Clouds Few 2600 ft
Scattered Clouds 5000 ft
Scattered Clouds 8000 ft
Heat Index 100 °F
Dew Point 71 °F
Humidity 49%
Rainfall 0.00 in
Snow Depth Not available.
UV 4 out of 12
Pollen 4.30 out of 12
Air Quality Not available.
Flu Activity Not available.
SPECI KPGD 302112Z AUTO 14011G20KT 10SM -TSRA FEW026 SCT050 SCT080 34/22 A3005 RMK AO2 LTG DSNT ALQDS RAB02 TSB06 P0000 T03390217

More Conditions Fewer Conditions

Pressure 30.05 in
Visibility 10.0 miles
Clouds Few 2600 ft
Scattered Clouds 5000 ft
Scattered Clouds 8000 ft
Heat Index 100 °F
Dew Point 71 °F
Humidity 49%
Rainfall 0.00 in
Snow Depth Not available.
UV 4 out of 12
Pollen 4.30 out of 12
Air Quality Not available.
Flu Activity Not available.
SPECI KPGD 302112Z AUTO 14011G20KT 10SM -TSRA FEW026 SCT050 SCT080 34/22 A3005 RMK AO2 LTG DSNT ALQDS RAB02 TSB06 P0000 T03390217

More Conditions Fewer Conditions

10-Day Weather Forecast

Almanac

Astronomy

Aug. 30, 2014 Rise Set
Actual Time 7:07 AM EDT 7:51 PM EDT
Civil Twilight 6:43 AM EDT 8:14 PM EDT
Nautical Twilight 6:15 AM EDT 8:42 PM EDT
Astronomical Twilight 5:47 AM EDT 9:10 PM EDT
Moon 11:24 AM EDT 10:55 PM EDT
Length of Visible Light 13h 31m
Length of Day
12h 43m
Tomorrow will be 1m 30s shorter.
Waxing Crescent, 25% of the Moon is Illuminated
Today
Waxing Crescent
Sep 2
First Quarter
Sep 8
Full
Sep 15
Last Quarter
Sep 24
New

Today's Extremes

State Highs State Lows

Community

WunderPhotos

Upload Photos

1,748,647 photos uploaded!

WunderBlogs® & News

Nearby

Snow Depth

Station Depth Elevation
No new snow has been reported.

Earthquake Activity

City Distance Mag. Time & Date
No recent earthquake activity has been reported nearby.
Minimum magnitude displayed is 2.5.

Coastal Water Temperatures

Place Temperature
No Stations Reporting

Nearby Weather Stations